createdAt,value
2023-01-26T00:00:02.955Z,44.42
2023-01-26T00:02:30.588Z,42.40
2023-01-26T00:04:58.070Z,46.10
2023-01-26T00:07:31.801Z,41.85
2023-01-26T00:10:03.262Z,42.10
2023-01-26T00:12:33.901Z,45.08
2023-01-26T00:17:33.620Z,40.65
2023-01-26T00:20:01.086Z,41.45
2023-01-26T00:22:29.058Z,41.40
2023-01-26T00:25:04.536Z,40.75
2023-01-26T00:27:34.458Z,46.60
2023-01-26T00:30:09.530Z,41.67
2023-01-26T00:32:40.161Z,41.00
2023-01-26T00:35:12.378Z,43.13
2023-01-26T00:37:43.060Z,41.35
2023-01-26T00:40:11.622Z,43.90
2023-01-26T00:42:40.162Z,40.15
2023-01-26T00:45:12.493Z,39.45
2023-01-26T00:47:40.640Z,40.88
2023-01-26T00:50:10.539Z,41.30
2023-01-26T00:52:45.456Z,39.80
2023-01-26T00:55:15.910Z,41.05
2023-01-26T00:57:46.466Z,41.92
2023-01-26T01:00:28.992Z,40.40
2023-01-26T01:02:59.759Z,37.80
2023-01-26T01:05:29.557Z,37.33
2023-01-26T01:07:58.694Z,39.70
2023-01-26T01:10:32.098Z,38.45
2023-01-26T01:13:01.807Z,36.67
2023-01-26T01:15:32.613Z,38.67
2023-01-26T01:18:02.207Z,37.95
2023-01-26T01:20:31.674Z,37.38
2023-01-26T01:23:00.923Z,39.97
2023-01-26T01:25:28.513Z,37.33
2023-01-26T01:28:03.620Z,37.95
2023-01-26T01:30:30.589Z,43.83
2023-01-26T01:33:00.432Z,38.05
2023-01-26T01:35:30.770Z,35.75
2023-01-26T01:37:58.399Z,38.50
2023-01-26T01:40:25.858Z,36.33
2023-01-26T01:42:58.438Z,39.15
2023-01-26T01:45:46.276Z,38.35
2023-01-26T01:48:25.220Z,37.80
2023-01-26T01:51:00.983Z,38.80
2023-01-26T01:53:38.107Z,33.92
2023-01-26T01:56:16.096Z,36.80
2023-01-26T01:58:43.541Z,38.83
2023-01-26T02:01:16.846Z,34.85
2023-01-26T02:03:58.008Z,33.95
2023-01-26T02:06:42.409Z,32.60
2023-01-26T02:09:37.942Z,34.70
2023-01-26T02:12:07.947Z,32.88
2023-01-26T02:14:36.141Z,34.80
2023-01-26T02:17:04.155Z,32.80
2023-01-26T02:20:07.796Z,33.55
2023-01-26T02:23:02.468Z,34.72
2023-01-26T02:25:29.181Z,38.72
2023-01-26T02:27:58.178Z,36.00
2023-01-26T02:30:27.239Z,38.60
2023-01-26T02:32:56.674Z,36.50
2023-01-26T02:35:24.757Z,36.35
2023-01-26T02:37:53.938Z,39.63
2023-01-26T02:40:44.811Z,37.28
2023-01-26T02:45:41.931Z,32.10
2023-01-26T02:48:16.486Z,37.65
2023-01-26T02:50:47.260Z,37.05
2023-01-26T02:53:15.900Z,35.63
2023-01-26T02:55:45.448Z,40.42
2023-01-26T02:58:15.438Z,35.40
2023-01-26T03:00:44.025Z,38.75
2023-01-26T03:03:16.112Z,37.63
2023-01-26T03:05:48.565Z,41.88
2023-01-26T03:08:22.399Z,37.65
2023-01-26T03:10:53.353Z,40.45
2023-01-26T03:13:22.504Z,39.65
2023-01-26T03:15:57.509Z,38.17
2023-01-26T03:18:45.344Z,39.08
2023-01-26T03:21:34.821Z,40.90
2023-01-26T03:24:22.495Z,39.78
2023-01-26T03:27:09.096Z,37.42
2023-01-26T03:29:38.738Z,42.60
2023-01-26T03:32:10.576Z,43.25
2023-01-26T03:34:41.404Z,36.70
2023-01-26T03:37:15.823Z,42.00
2023-01-26T03:40:04.587Z,40.92
2023-01-26T03:42:50.367Z,37.50
2023-01-26T03:45:36.142Z,38.17
2023-01-26T03:48:23.816Z,41.25
2023-01-26T03:51:10.734Z,44.47
2023-01-26T03:53:57.093Z,43.38
2023-01-26T03:56:33.112Z,43.60
2023-01-26T03:59:14.089Z,44.13
2023-01-26T04:04:50.451Z,42.88
2023-01-26T04:07:41.795Z,45.60
2023-01-26T04:10:16.926Z,47.15
2023-01-26T04:12:43.489Z,47.85
2023-01-26T04:15:35.959Z,47.70
2023-01-26T04:18:28.114Z,49.47
2023-01-26T04:21:13.754Z,53.38
2023-01-26T04:23:43.142Z,52.22
2023-01-26T04:26:10.813Z,51.67
2023-01-26T04:28:40.457Z,51.90
2023-01-26T04:31:11.761Z,56.33
2023-01-26T04:33:40.515Z,53.45
2023-01-26T04:36:20.939Z,56.05
2023-01-26T04:38:54.014Z,55.80
2023-01-26T04:41:23.153Z,58.13
2023-01-26T04:43:56.286Z,52.25
2023-01-26T04:46:29.340Z,54.10
2023-01-26T04:48:57.566Z,51.50
2023-01-26T04:51:25.560Z,49.10
2023-01-26T04:54:03.539Z,49.33
2023-01-26T04:56:38.795Z,56.25
2023-01-26T04:59:11.102Z,53.45
2023-01-26T05:01:37.882Z,49.42
2023-01-26T05:04:05.164Z,52.17
2023-01-26T05:06:31.903Z,51.95
2023-01-26T05:08:58.869Z,49.53
2023-01-26T05:11:25.769Z,49.30
2023-01-26T05:13:52.285Z,48.28
2023-01-26T05:16:19.890Z,46.00
2023-01-26T05:18:47.570Z,50.20
2023-01-26T05:21:14.618Z,44.28
2023-01-26T05:23:42.985Z,46.65
2023-01-26T05:26:09.387Z,46.47
2023-01-26T05:28:36.257Z,46.85
2023-01-26T05:31:02.733Z,42.72
2023-01-26T05:33:29.274Z,42.78
2023-01-26T05:35:55.685Z,42.65
2023-01-26T05:38:22.354Z,43.63
2023-01-26T05:40:48.830Z,40.67
2023-01-26T05:43:15.319Z,40.67
2023-01-26T05:45:44.873Z,39.50
2023-01-26T05:48:11.377Z,43.08
2023-01-26T05:50:37.841Z,40.75
2023-01-26T05:53:04.396Z,43.00
2023-01-26T05:55:30.825Z,43.53
2023-01-26T05:57:57.253Z,38.95
2023-01-26T06:00:24.007Z,37.60
2023-01-26T06:02:50.502Z,37.38
2023-01-26T06:05:17.003Z,40.63
2023-01-26T06:07:43.603Z,37.42
2023-01-26T06:10:10.916Z,38.08
2023-01-26T06:12:38.597Z,38.13
2023-01-26T06:15:06.203Z,39.33
2023-01-26T06:17:32.720Z,39.22
2023-01-26T06:19:59.167Z,34.67
2023-01-26T06:22:25.600Z,36.75
2023-01-26T06:24:52.023Z,36.28
2023-01-26T06:27:18.648Z,36.22
2023-01-26T06:29:45.703Z,34.45
2023-01-26T06:32:13.512Z,35.70
2023-01-26T06:34:40.025Z,35.40
2023-01-26T06:37:07.448Z,36.70
2023-01-26T06:39:33.931Z,31.60
2023-01-26T06:42:00.371Z,31.77
2023-01-26T06:44:26.861Z,31.17
2023-01-26T06:46:53.290Z,31.95
2023-01-26T06:49:19.881Z,30.15
2023-01-26T06:51:57.489Z,30.55
2023-01-26T06:54:24.229Z,31.92
2023-01-26T06:56:50.677Z,30.38
2023-01-26T06:59:17.161Z,31.48
2023-01-26T07:01:47.120Z,31.00
2023-01-26T07:04:13.555Z,27.83
2023-01-26T07:06:40.026Z,31.27
2023-01-26T07:09:06.560Z,32.10
2023-01-26T07:11:33.020Z,29.83
2023-01-26T07:13:59.776Z,30.70
2023-01-26T07:16:26.329Z,31.65
2023-01-26T07:18:54.707Z,34.10
2023-01-26T07:21:22.939Z,34.00
2023-01-26T07:23:50.662Z,31.02
2023-01-26T07:26:17.307Z,32.80
2023-01-26T07:28:45.393Z,32.63
2023-01-26T07:31:12.709Z,31.38
2023-01-26T07:33:39.476Z,27.70
2023-01-26T07:36:06.483Z,30.55
2023-01-26T07:38:33.727Z,29.15
2023-01-26T07:41:05.421Z,31.58
2023-01-26T07:43:33.706Z,27.65
2023-01-26T07:46:00.145Z,29.42
2023-01-26T07:48:26.722Z,28.65
2023-01-26T07:50:53.141Z,27.92
2023-01-26T07:53:19.613Z,28.65
2023-01-26T07:55:46.878Z,29.50
2023-01-26T07:58:13.476Z,28.40
2023-01-26T08:00:40.011Z,26.75
2023-01-26T08:03:06.564Z,27.08
2023-01-26T08:05:33.541Z,28.05
2023-01-26T08:08:00.423Z,24.75
2023-01-26T08:10:31.617Z,28.77
2023-01-26T08:13:01.639Z,28.08
2023-01-26T08:15:28.748Z,29.75
2023-01-26T08:17:55.373Z,28.70
2023-01-26T08:20:22.320Z,30.17
2023-01-26T08:22:48.796Z,30.52
2023-01-26T08:25:15.345Z,34.03
2023-01-26T08:27:41.841Z,30.02
2023-01-26T08:30:09.217Z,32.22
2023-01-26T08:32:35.923Z,31.55
2023-01-26T08:35:02.347Z,31.45
2023-01-26T08:37:28.818Z,31.00
2023-01-26T08:39:55.321Z,30.40
2023-01-26T08:42:22.760Z,31.02
2023-01-26T08:44:49.322Z,31.95
2023-01-26T08:47:15.793Z,30.95
2023-01-26T08:49:42.192Z,30.15
2023-01-26T08:52:08.724Z,31.00
2023-01-26T08:54:35.287Z,31.80
2023-01-26T08:57:01.785Z,32.33
2023-01-26T08:59:28.281Z,31.67
2023-01-26T09:01:55.682Z,34.60
2023-01-26T09:04:22.313Z,33.47
2023-01-26T09:06:48.827Z,32.90
2023-01-26T09:09:15.614Z,34.40
2023-01-26T09:11:42.255Z,33.95
2023-01-26T09:14:08.714Z,34.75
2023-01-26T09:16:35.318Z,36.25
2023-01-26T09:19:02.140Z,34.45
2023-01-26T09:21:28.600Z,31.92
2023-01-26T09:23:56.571Z,32.40
2023-01-26T09:26:23.156Z,33.05
2023-01-26T09:28:51.588Z,35.05
2023-01-26T09:31:18.196Z,33.60
2023-01-26T09:33:45.367Z,36.42
2023-01-26T09:36:13.262Z,33.88
2023-01-26T09:38:40.256Z,36.78
2023-01-26T09:41:28.613Z,37.17
2023-01-26T09:43:57.629Z,32.33
2023-01-26T09:46:28.203Z,33.95
2023-01-26T09:49:10.128Z,37.65
2023-01-26T09:51:38.405Z,34.58
2023-01-26T09:54:29.741Z,32.58
2023-01-26T09:56:56.383Z,31.52
2023-01-26T09:59:32.003Z,32.85
2023-01-26T10:02:20.497Z,31.23
2023-01-26T10:04:50.781Z,32.60
2023-01-26T10:07:17.306Z,30.75
2023-01-26T10:09:47.744Z,28.92
2023-01-26T10:12:30.540Z,29.88
2023-01-26T10:15:11.480Z,30.90
2023-01-26T10:20:33.596Z,26.10
2023-01-26T10:23:30.284Z,27.50
2023-01-26T10:26:06.874Z,26.52
2023-01-26T10:28:36.717Z,25.58
2023-01-26T10:31:05.572Z,27.83
2023-01-26T10:33:36.625Z,26.80
2023-01-26T10:38:33.785Z,24.58
2023-01-26T10:41:05.614Z,28.13
2023-01-26T10:43:37.815Z,27.15
2023-01-26T10:46:04.971Z,30.17
2023-01-26T10:48:32.089Z,27.13
2023-01-26T10:51:15.841Z,28.08
2023-01-26T10:53:42.360Z,27.80
2023-01-26T10:56:17.133Z,28.77
2023-01-26T10:58:46.693Z,28.25
2023-01-26T11:01:16.475Z,27.75
2023-01-26T11:04:07.280Z,28.90
2023-01-26T11:06:34.289Z,29.27
2023-01-26T11:09:14.188Z,27.88
2023-01-26T11:11:43.421Z,28.58
2023-01-26T11:14:18.561Z,28.10
2023-01-26T11:16:56.085Z,30.08
2023-01-26T11:19:22.478Z,28.90
2023-01-26T11:21:54.913Z,28.17
2023-01-26T11:24:50.656Z,27.55
2023-01-26T11:27:23.251Z,25.77
2023-01-26T11:30:01.380Z,26.58
2023-01-26T11:32:56.031Z,26.23
2023-01-26T11:35:22.488Z,25.52
2023-01-26T11:37:57.136Z,26.48
2023-01-26T11:40:44.849Z,24.30
2023-01-26T11:43:26.590Z,23.95
2023-01-26T11:46:19.465Z,23.27
2023-01-26T11:49:08.378Z,25.10
2023-01-26T11:51:49.011Z,24.83
2023-01-26T11:54:28.845Z,22.10
2023-01-26T11:57:13.849Z,23.42
2023-01-26T11:59:44.561Z,24.40
2023-01-26T12:02:20.323Z,23.67
2023-01-26T12:04:48.089Z,24.05
2023-01-26T12:07:29.098Z,23.92
2023-01-26T12:12:36.397Z,21.83
2023-01-26T12:15:10.655Z,20.27
2023-01-26T12:18:15.538Z,20.10
2023-01-26T12:20:55.093Z,20.90
2023-01-26T12:23:21.613Z,20.75
2023-01-26T12:25:52.795Z,20.50
2023-01-26T12:28:29.474Z,20.52
2023-01-26T12:31:14.490Z,20.73
2023-01-26T12:33:41.756Z,20.40
2023-01-26T12:36:42.519Z,19.77
2023-01-26T12:39:13.467Z,16.45
2023-01-26T12:44:42.995Z,18.50
2023-01-26T12:47:17.726Z,15.82
2023-01-26T12:49:54.720Z,16.23
2023-01-26T12:52:34.986Z,15.13
2023-01-26T12:55:32.624Z,16.42
2023-01-26T12:58:23.641Z,16.00
2023-01-26T13:03:24.590Z,14.40
2023-01-26T13:06:03.409Z,13.27
2023-01-26T13:08:33.035Z,14.25
2023-01-26T13:11:01.870Z,14.23
2023-01-26T13:13:29.923Z,13.90
2023-01-26T13:16:15.557Z,14.55
2023-01-26T13:18:53.562Z,15.35
2023-01-26T13:21:43.141Z,14.18
2023-01-26T13:24:18.831Z,13.48
2023-01-26T13:26:55.292Z,12.65
2023-01-26T13:29:34.009Z,15.40
2023-01-26T13:32:22.503Z,16.00
2023-01-26T13:34:57.444Z,14.07
2023-01-26T13:37:59.477Z,18.88
2023-01-26T13:40:32.298Z,18.50
2023-01-26T13:43:26.837Z,17.48
2023-01-26T13:46:03.234Z,17.80
2023-01-26T13:49:02.375Z,18.70
2023-01-26T13:51:31.030Z,19.05
2023-01-26T13:54:13.289Z,20.08
2023-01-26T13:57:00.060Z,23.25
2023-01-26T13:59:26.740Z,19.83
2023-01-26T14:01:56.030Z,19.92
2023-01-26T14:04:25.020Z,22.10
2023-01-26T14:06:56.467Z,21.08
2023-01-26T14:09:23.398Z,22.52
2023-01-26T14:11:57.409Z,23.23
2023-01-26T14:14:27.077Z,22.58
2023-01-26T14:16:53.916Z,27.17
2023-01-26T14:19:22.373Z,20.60
2023-01-26T14:22:02.433Z,25.80
2023-01-26T14:24:34.070Z,24.17
2023-01-26T14:27:02.698Z,24.35
2023-01-26T14:29:30.057Z,26.70
2023-01-26T14:31:58.881Z,26.42
2023-01-26T14:34:30.390Z,22.40
2023-01-26T14:37:14.259Z,25.67
2023-01-26T14:39:44.756Z,21.70
2023-01-26T14:42:15.880Z,22.02
2023-01-26T14:44:43.149Z,23.70
2023-01-26T14:47:12.560Z,20.60
2023-01-26T14:49:50.057Z,22.85
2023-01-26T14:52:28.056Z,24.48
2023-01-26T14:54:57.233Z,21.17
2023-01-26T14:57:25.861Z,22.52
2023-01-26T14:59:59.614Z,21.70
2023-01-26T15:02:47.180Z,20.50
2023-01-26T15:05:19.126Z,22.50
2023-01-26T15:08:00.339Z,20.98
2023-01-26T15:10:29.997Z,19.45
2023-01-26T15:13:16.679Z,23.17
2023-01-26T15:15:48.905Z,28.33
2023-01-26T15:18:19.840Z,23.20
2023-01-26T15:21:02.676Z,21.33
2023-01-26T15:23:34.355Z,26.15
2023-01-26T15:26:06.162Z,25.27
2023-01-26T15:28:33.432Z,21.08
2023-01-26T15:31:00.871Z,23.50
2023-01-26T15:33:41.019Z,22.70
2023-01-26T15:36:24.565Z,23.17
2023-01-26T15:38:59.810Z,22.40
2023-01-26T15:41:26.889Z,24.02
2023-01-26T15:43:53.375Z,24.50
2023-01-26T15:46:20.007Z,26.02
2023-01-26T15:48:46.938Z,22.15
2023-01-26T15:51:14.580Z,22.10
2023-01-26T15:53:41.738Z,20.90
2023-01-26T15:56:13.469Z,22.65
2023-01-26T15:58:40.783Z,21.55
2023-01-26T16:01:10.400Z,23.90
2023-01-26T16:03:36.974Z,20.85
2023-01-26T16:06:03.617Z,22.23
2023-01-26T16:08:30.107Z,22.75
2023-01-26T16:10:57.539Z,22.25
2023-01-26T16:13:24.000Z,22.30
2023-01-26T16:15:52.664Z,22.70
2023-01-26T16:18:20.058Z,22.58
2023-01-26T16:20:48.605Z,21.40
2023-01-26T16:23:18.058Z,24.45
2023-01-26T16:25:44.819Z,20.95
2023-01-26T16:28:11.302Z,23.95
2023-01-26T16:30:37.891Z,27.45
2023-01-26T16:33:04.630Z,25.95
2023-01-26T16:35:31.335Z,28.20
2023-01-26T16:37:57.894Z,29.17
2023-01-26T16:40:24.373Z,26.80
2023-01-26T16:42:52.508Z,30.20
2023-01-26T16:45:24.142Z,28.67
2023-01-26T16:47:54.060Z,32.47
2023-01-26T16:50:20.790Z,29.42
2023-01-26T16:52:47.246Z,30.63
2023-01-26T16:55:16.052Z,31.35
2023-01-26T16:57:43.858Z,29.98
2023-01-26T17:00:17.331Z,33.13
2023-01-26T17:02:46.878Z,31.00
2023-01-26T17:05:15.263Z,27.60
2023-01-26T17:07:44.714Z,28.52
2023-01-26T17:10:12.541Z,27.75
2023-01-26T17:12:39.084Z,28.67
2023-01-26T17:15:06.846Z,28.33
2023-01-26T17:17:33.777Z,30.90
2023-01-26T17:20:17.562Z,25.95
2023-01-26T17:22:45.099Z,29.73
2023-01-26T17:25:13.894Z,29.77
2023-01-26T17:30:10.504Z,29.98
2023-01-26T17:32:36.928Z,32.83
2023-01-26T17:35:03.718Z,28.90
2023-01-26T17:37:31.507Z,31.98
2023-01-26T17:39:58.300Z,30.63
2023-01-26T17:42:25.676Z,29.63
2023-01-26T17:44:52.290Z,33.95
2023-01-26T17:47:18.924Z,30.10
2023-01-26T17:49:45.436Z,32.35
2023-01-26T17:52:14.268Z,30.70
2023-01-26T17:54:41.076Z,34.85
2023-01-26T17:57:08.000Z,33.05
2023-01-26T17:59:34.686Z,31.23
2023-01-26T18:02:01.185Z,29.52
2023-01-26T18:04:28.491Z,29.70
2023-01-26T18:06:55.685Z,33.70
2023-01-26T18:09:22.200Z,34.90
2023-01-26T18:11:48.685Z,31.25
2023-01-26T18:14:15.129Z,30.45
2023-01-26T18:16:41.698Z,31.73
2023-01-26T18:19:08.238Z,32.72
2023-01-26T18:21:35.841Z,30.20
2023-01-26T18:24:04.314Z,30.52
2023-01-26T18:26:34.574Z,30.05
2023-01-26T18:29:01.284Z,31.58
2023-01-26T18:31:30.553Z,30.33
2023-01-26T18:33:58.846Z,30.92
2023-01-26T18:36:25.739Z,31.33
2023-01-26T18:38:55.806Z,31.08
2023-01-26T18:41:23.144Z,36.17
2023-01-26T18:43:51.020Z,31.55
2023-01-26T18:46:17.668Z,32.47
2023-01-26T18:48:44.277Z,28.63
2023-01-26T18:51:10.911Z,32.38
2023-01-26T18:53:38.965Z,29.70
2023-01-26T18:56:10.845Z,31.92
2023-01-26T18:58:38.235Z,31.35
2023-01-26T19:01:09.329Z,31.73
2023-01-26T19:03:36.783Z,33.03
2023-01-26T19:06:04.966Z,36.35
2023-01-26T19:08:31.744Z,34.15
2023-01-26T19:11:04.860Z,32.17
2023-01-26T19:13:31.336Z,33.72
2023-01-26T19:15:57.777Z,31.13
2023-01-26T19:18:24.432Z,34.22
2023-01-26T19:20:58.283Z,33.67
2023-01-26T19:23:25.513Z,30.15
2023-01-26T19:25:52.322Z,32.47
2023-01-26T19:28:20.096Z,32.78
2023-01-26T19:30:47.035Z,32.38
2023-01-26T19:33:25.742Z,31.67
2023-01-26T19:35:52.566Z,30.65
2023-01-26T19:38:19.389Z,32.05
2023-01-26T19:40:47.677Z,30.63
2023-01-26T19:43:15.131Z,30.10
2023-01-26T19:45:46.665Z,32.25
2023-01-26T19:48:13.194Z,34.83
2023-01-26T19:50:41.357Z,29.38
2023-01-26T19:53:07.888Z,30.63
2023-01-26T19:55:34.739Z,31.00
2023-01-26T19:58:01.263Z,31.80
2023-01-26T20:00:27.769Z,29.92
2023-01-26T20:02:54.262Z,31.95
2023-01-26T20:05:20.727Z,32.88
2023-01-26T20:07:47.153Z,31.63
2023-01-26T20:10:13.744Z,33.53
2023-01-26T20:12:40.170Z,31.33
2023-01-26T20:15:08.506Z,28.88
2023-01-26T20:17:35.536Z,29.25
2023-01-26T20:20:02.421Z,27.50
2023-01-26T20:22:33.482Z,27.90
2023-01-26T20:25:00.667Z,29.17
2023-01-26T20:27:28.100Z,26.50
2023-01-26T20:29:54.590Z,25.83
2023-01-26T20:32:21.014Z,26.23
2023-01-26T20:34:47.953Z,23.75
2023-01-26T20:37:14.574Z,25.65
2023-01-26T20:39:41.034Z,26.70
2023-01-26T20:42:08.068Z,22.45
2023-01-26T20:44:34.641Z,23.63
2023-01-26T20:47:01.233Z,22.35
2023-01-26T20:49:33.603Z,21.80
2023-01-26T20:54:49.293Z,19.45
2023-01-26T20:57:23.679Z,21.52
2023-01-26T20:59:54.766Z,19.52
2023-01-26T21:02:33.607Z,19.98
2023-01-26T21:05:02.281Z,20.27
2023-01-26T21:07:36.957Z,18.23
2023-01-26T21:10:08.611Z,18.60
2023-01-26T21:12:39.933Z,16.08
2023-01-26T21:15:10.527Z,13.10
2023-01-26T21:20:38.298Z,14.82
2023-01-26T21:23:07.571Z,13.75
2023-01-26T21:25:41.647Z,14.32
2023-01-26T21:28:10.184Z,12.73
2023-01-26T21:30:46.297Z,11.20
2023-01-26T21:33:14.235Z,9.80
2023-01-26T21:35:42.949Z,11.40
2023-01-26T21:38:12.547Z,11.75
2023-01-26T21:40:49.294Z,11.07
2023-01-26T21:43:19.416Z,9.48
2023-01-26T21:45:54.901Z,7.75
2023-01-26T21:48:37.727Z,8.38
2023-01-26T21:51:30.053Z,7.03
2023-01-26T21:54:01.768Z,7.20
2023-01-26T21:56:29.343Z,5.95
2023-01-26T21:59:05.921Z,5.47
2023-01-26T22:01:59.378Z,5.57
2023-01-26T22:04:46.181Z,5.25
2023-01-26T22:07:18.730Z,4.70
2023-01-26T22:09:47.118Z,4.47
2023-01-26T22:12:15.362Z,4.30
2023-01-26T22:14:42.450Z,4.93
2023-01-26T22:17:12.007Z,3.50
2023-01-26T22:19:43.432Z,4.07
2023-01-26T22:22:11.001Z,4.00
2023-01-26T22:24:43.550Z,4.88
2023-01-26T22:27:16.504Z,4.32
2023-01-26T22:29:45.385Z,4.05
2023-01-26T22:35:20.606Z,3.35
2023-01-26T22:37:47.248Z,4.93
2023-01-26T22:40:15.147Z,4.40
2023-01-26T22:42:44.765Z,4.82
2023-01-26T22:45:11.982Z,5.05
2023-01-26T22:47:40.224Z,3.50
2023-01-26T22:50:08.014Z,4.55
2023-01-26T22:52:34.538Z,4.25
2023-01-26T22:55:01.017Z,5.93
2023-01-26T22:57:27.422Z,4.43
2023-01-26T22:59:53.926Z,8.95
2023-01-26T23:02:21.111Z,5.25
2023-01-26T23:04:47.585Z,4.80
2023-01-26T23:07:14.138Z,5.38
2023-01-26T23:09:40.848Z,4.57
2023-01-26T23:12:07.519Z,5.15
2023-01-26T23:14:34.599Z,5.78
2023-01-26T23:17:01.055Z,7.15
2023-01-26T23:19:27.727Z,5.07
2023-01-26T23:21:54.269Z,4.93
2023-01-26T23:24:22.233Z,6.30
2023-01-26T23:26:48.828Z,4.85
2023-01-26T23:29:15.366Z,5.50
2023-01-26T23:31:42.046Z,4.90
2023-01-26T23:34:08.485Z,5.72
2023-01-26T23:36:35.126Z,6.65
2023-01-26T23:39:01.657Z,5.03
2023-01-26T23:41:28.155Z,6.18
2023-01-26T23:43:54.608Z,7.25
2023-01-26T23:46:21.088Z,7.30
2023-01-26T23:48:47.639Z,7.32
2023-01-26T23:51:14.280Z,7.97
2023-01-26T23:53:40.848Z,7.85
2023-01-26T23:56:13.992Z,8.50
2023-01-26T23:58:41.277Z,9.23
